LHPP

Details ICAO LHPP (PEV)
Name PECS SOUTH
Region Hungary
Timezone Europe/Budapest (UTC+2.0)
Plans Departing 29
Arriving 31
Stats Elevation 1,000 ft / 305 m (AMSL)
Location 45.989306° 18.242083°
Runways 1
Magnetic Variation 4.456° E
Sunrise 2018-05-20 03:11:09 UTC / 2018-05-20 05:11:09 Local
Sunset 2018-05-20 18:18:48 UTC / 2018-05-20 20:18:48 Local
Advertisement - Login to hide

Runways

ID Width Length Bearing (true) Bearing (mag) Surface Threshold Offset Overrun Length
16 98 ft / 30 m 4,942 ft / 1,506 m 157.37° 152.91° Asphalt 0 ft / 0 m 0 ft / 0 m
34 98 ft / 30 m 4,942 ft / 1,506 m 337.37° 332.91° Asphalt 0 ft / 0 m 0 ft / 0 m

Approach Navaids

Runway Type Ident Frequency Range Bearing (true) Bearing (mag) Slope Elevation
34 Localiser PCS 108.35 MHz 18 nm / 33 km 337.47° 333.01° - 676 ft / 206 m (AMSL)
34 Glidescope PCS 108.35 MHz 10 nm / 19 km 337.37° 332.91° 3.00° 676 ft / 206 m (AMSL)

Map

Weather


0- 5 10 15 20 25 30 35+ Temperature / ° C

Clouds and Precipitation
Forecast for 2018-05-20 18:00 UTC. Updated an hour ago

Ground ~20,000 ft ~40,000 ft Winds

METAR

LHPP 201545Z 05009KT CAVOK 23/07 Q1018

TAF

Not found

Frequencies

Tower 126.90 MHz POGANY INFO
Warning: Do not use this data for real-world aviation or navigation. No guarantee of current accuracy is given.